createdAt,value
2019-04-12T00:01:12.355Z,7.30
2019-04-12T00:03:41.959Z,7.30
2019-04-12T00:06:11.743Z,7.30
2019-04-12T00:08:41.488Z,7.30
2019-04-12T00:11:11.027Z,7.30
2019-04-12T00:13:40.839Z,7.30
2019-04-12T00:16:11.923Z,7.20
2019-04-12T00:18:42.975Z,7.10
2019-04-12T00:21:14.856Z,7.20
2019-04-12T00:23:45.718Z,7.10
2019-04-12T00:26:16.009Z,7.10
2019-04-12T00:28:49.946Z,7.10
2019-04-12T00:31:17.466Z,7.10
2019-04-12T00:33:46.893Z,7.20
2019-04-12T00:36:16.325Z,7.20
2019-04-12T00:38:46.205Z,7.10
2019-04-12T00:41:15.792Z,7.10
2019-04-12T00:43:45.320Z,7.10
2019-04-12T00:46:14.860Z,7.10
2019-04-12T00:48:44.291Z,7.10
2019-04-12T00:51:13.869Z,7.00
2019-04-12T00:53:45.348Z,7.00
2019-04-12T00:56:16.430Z,6.90
2019-04-12T00:58:47.083Z,6.90
2019-04-12T01:01:21.447Z,6.90
2019-04-12T01:03:52.603Z,7.00
2019-04-12T01:06:22.243Z,6.90
2019-04-12T01:08:52.684Z,6.90
2019-04-12T01:11:24.874Z,6.90
2019-04-12T01:13:57.131Z,6.90
2019-04-12T01:16:24.986Z,6.90
2019-04-12T01:18:54.842Z,7.00
2019-04-12T01:21:24.590Z,6.90
2019-04-12T01:23:54.133Z,6.90
2019-04-12T01:26:23.867Z,6.90
2019-04-12T01:28:53.299Z,6.80
2019-04-12T01:31:23.021Z,6.90
2019-04-12T01:33:52.455Z,6.90
2019-04-12T01:36:22.019Z,6.90
2019-04-12T01:38:51.608Z,6.80
2019-04-12T01:41:21.134Z,6.70
2019-04-12T01:43:50.740Z,6.60
2019-04-12T01:46:20.268Z,6.50
2019-04-12T01:48:49.739Z,6.50
2019-04-12T01:51:19.176Z,6.40
2019-04-12T01:53:48.910Z,6.30
2019-04-12T01:56:18.601Z,6.20
2019-04-12T01:58:48.283Z,6.20
2019-04-12T02:01:18.223Z,6.20
2019-04-12T02:03:47.652Z,6.20
2019-04-12T02:06:17.131Z,6.10
2019-04-12T02:08:46.592Z,6.10
2019-04-12T02:11:16.212Z,6.10
2019-04-12T02:13:45.638Z,6.00
2019-04-12T02:16:15.171Z,6.00
2019-04-12T02:18:44.858Z,6.00
2019-04-12T02:21:14.418Z,6.00
2019-04-12T02:23:44.214Z,5.90
2019-04-12T02:26:14.348Z,5.90
2019-04-12T02:28:53.059Z,5.90
2019-04-12T02:31:27.147Z,5.80
2019-04-12T02:33:57.797Z,5.70
2019-04-12T02:36:29.058Z,5.80
2019-04-12T02:38:58.704Z,5.70
2019-04-12T02:41:29.149Z,5.80
2019-04-12T02:44:00.451Z,5.70
2019-04-12T02:46:35.753Z,5.60
2019-04-12T02:49:10.488Z,5.50
2019-04-12T02:51:43.700Z,5.50
2019-04-12T02:54:25.263Z,5.60
2019-04-12T02:57:14.952Z,5.50
2019-04-12T02:59:44.915Z,5.50
2019-04-12T03:02:16.557Z,5.50
2019-04-12T03:04:46.332Z,5.40
2019-04-12T03:07:16.277Z,5.40
2019-04-12T03:09:47.191Z,5.50
2019-04-12T03:12:18.457Z,5.40
2019-04-12T03:14:48.702Z,5.40
2019-04-12T03:17:18.333Z,5.30
2019-04-12T03:19:48.683Z,5.30
2019-04-12T03:22:18.594Z,5.30
2019-04-12T03:24:48.227Z,5.30
2019-04-12T03:27:18.700Z,5.30
2019-04-12T03:29:48.595Z,5.20
2019-04-12T03:32:18.632Z,5.20
2019-04-12T03:34:48.305Z,5.10
2019-04-12T03:37:18.153Z,5.10
2019-04-12T03:39:47.721Z,5.10
2019-04-12T03:42:17.293Z,5.10
2019-04-12T03:44:48.167Z,5.10
2019-04-12T03:47:17.966Z,5.10
2019-04-12T03:49:47.959Z,5.00
2019-04-12T03:52:18.957Z,5.10
2019-04-12T03:54:48.520Z,5.00
2019-04-12T03:57:18.366Z,5.00
2019-04-12T03:59:48.072Z,5.00
2019-04-12T04:02:19.354Z,5.00
2019-04-12T04:04:49.401Z,5.00
2019-04-12T04:07:19.890Z,5.00
2019-04-12T04:09:49.510Z,4.90
2019-04-12T04:12:19.672Z,4.90
2019-04-12T04:14:49.394Z,4.80
2019-04-12T04:17:32.478Z,4.80
2019-04-12T04:20:06.761Z,4.80
2019-04-12T04:22:38.155Z,4.70
2019-04-12T04:25:09.630Z,4.70
2019-04-12T04:27:47.276Z,4.70
2019-04-12T04:30:18.961Z,4.70
2019-04-12T04:32:50.448Z,4.70
2019-04-12T04:35:20.667Z,4.70
2019-04-12T04:37:51.108Z,4.70
2019-04-12T04:40:21.190Z,4.70
2019-04-12T04:42:50.918Z,4.70
2019-04-12T04:45:21.110Z,4.70
2019-04-12T04:47:51.072Z,4.70
2019-04-12T04:50:21.465Z,4.70
2019-04-12T04:52:51.312Z,4.70
2019-04-12T04:55:21.026Z,4.70
2019-04-12T04:57:50.992Z,4.70
2019-04-12T05:00:20.873Z,4.80
2019-04-12T05:02:50.638Z,4.80
2019-04-12T05:05:20.705Z,4.80
2019-04-12T05:07:50.347Z,4.80
2019-04-12T05:10:20.280Z,4.80
2019-04-12T05:12:50.547Z,4.70
2019-04-12T05:15:20.869Z,4.70
2019-04-12T05:17:50.565Z,4.70
2019-04-12T05:20:21.292Z,4.80
2019-04-12T05:22:50.815Z,4.80
2019-04-12T05:25:20.653Z,4.80
2019-04-12T05:27:50.368Z,4.90
2019-04-12T05:30:20.208Z,5.00
2019-04-12T05:32:50.577Z,5.10
2019-04-12T05:35:20.783Z,5.10
2019-04-12T05:37:50.642Z,5.00
2019-04-12T05:40:20.723Z,5.10
2019-04-12T05:42:50.184Z,5.10
2019-04-12T05:45:24.622Z,5.10
2019-04-12T05:48:08.162Z,5.10
2019-04-12T05:50:39.309Z,5.10
2019-04-12T05:53:09.413Z,5.10
2019-04-12T05:55:40.896Z,5.20
2019-04-12T05:58:23.718Z,5.20
2019-04-12T06:01:06.964Z,5.10
2019-04-12T06:03:36.488Z,5.10
2019-04-12T06:06:06.188Z,5.20
2019-04-12T06:08:35.997Z,5.30
2019-04-12T06:11:05.808Z,5.20
2019-04-12T06:13:35.529Z,5.30
2019-04-12T06:16:05.292Z,5.40
2019-04-12T06:18:36.562Z,5.50
2019-04-12T06:21:24.041Z,5.60
2019-04-12T06:23:53.496Z,5.80
2019-04-12T06:26:34.283Z,6.00
2019-04-12T06:29:03.808Z,6.10
2019-04-12T06:31:33.757Z,6.20
2019-04-12T06:34:03.427Z,6.40
2019-04-12T06:36:33.155Z,6.60
2019-04-12T06:39:04.189Z,6.70
2019-04-12T06:41:33.880Z,7.00
2019-04-12T06:44:03.387Z,7.20
2019-04-12T06:46:33.025Z,7.40
2019-04-12T06:49:02.727Z,7.40
2019-04-12T06:51:32.394Z,7.50
2019-04-12T06:54:01.892Z,7.60
2019-04-12T06:56:33.209Z,7.50
2019-04-12T06:59:02.745Z,7.60
2019-04-12T07:01:40.290Z,7.70
2019-04-12T07:04:20.429Z,7.90
2019-04-12T07:06:50.081Z,7.90
2019-04-12T07:09:21.039Z,8.10
2019-04-12T07:11:50.482Z,8.20
2019-04-12T07:14:20.152Z,8.30
2019-04-12T07:16:50.166Z,8.30
2019-04-12T07:19:20.707Z,8.20
2019-04-12T07:21:50.573Z,8.30
2019-04-12T07:24:20.273Z,8.40
2019-04-12T07:26:49.772Z,8.50
2019-04-12T07:29:20.356Z,8.60
2019-04-12T07:31:49.829Z,8.60
2019-04-12T07:34:19.328Z,8.70
2019-04-12T07:36:49.119Z,8.60
2019-04-12T07:39:19.049Z,8.60
2019-04-12T07:41:49.562Z,8.60
2019-04-12T07:44:19.192Z,8.60
2019-04-12T07:46:48.692Z,8.80
2019-04-12T07:49:18.135Z,8.90
2019-04-12T07:51:55.632Z,8.90
2019-04-12T07:54:45.261Z,9.10
2019-04-12T07:57:19.462Z,9.00
2019-04-12T07:59:49.184Z,9.00
2019-04-12T08:02:32.257Z,9.00
2019-04-12T08:05:03.324Z,9.10
2019-04-12T08:07:34.581Z,9.00
2019-04-12T08:10:06.804Z,9.10
2019-04-12T08:12:36.312Z,9.30
2019-04-12T08:15:13.296Z,9.20
2019-04-12T08:17:39.306Z,9.40
2019-04-12T08:20:09.424Z,9.60
2019-04-12T08:22:39.060Z,9.60
2019-04-12T08:25:08.758Z,9.80
2019-04-12T08:27:38.265Z,9.90
2019-04-12T08:30:09.971Z,9.80
2019-04-12T08:32:39.735Z,9.80
2019-04-12T08:35:11.535Z,10.00
2019-04-12T08:37:40.711Z,10.00
2019-04-12T08:40:10.803Z,10.20
2019-04-12T08:42:40.746Z,10.40
2019-04-12T08:45:10.425Z,10.50
2019-04-12T08:47:39.970Z,10.50
2019-04-12T08:50:09.763Z,10.60
2019-04-12T08:52:39.708Z,10.60
2019-04-12T08:55:09.346Z,10.70
2019-04-12T08:57:38.982Z,10.80
2019-04-12T09:00:08.908Z,10.80
2019-04-12T09:02:38.669Z,10.90
2019-04-12T09:05:08.478Z,11.00
2019-04-12T09:07:38.146Z,11.10
2019-04-12T09:10:07.863Z,11.10
2019-04-12T09:12:37.535Z,11.40
2019-04-12T09:15:07.430Z,11.30
2019-04-12T09:17:36.989Z,11.50
2019-04-12T09:20:08.672Z,11.70
2019-04-12T09:22:40.209Z,11.70
2019-04-12T09:25:17.717Z,11.80
2019-04-12T09:27:47.149Z,12.00
2019-04-12T09:30:16.792Z,12.10
2019-04-12T09:32:46.284Z,12.10
2019-04-12T09:35:15.916Z,12.20
2019-04-12T09:37:45.866Z,12.40
2019-04-12T09:40:15.649Z,12.50
2019-04-12T09:42:45.461Z,12.50
2019-04-12T09:45:14.968Z,12.20
2019-04-12T09:47:44.755Z,12.30
2019-04-12T09:50:14.410Z,12.60
2019-04-12T09:52:44.033Z,12.90
2019-04-12T09:55:15.100Z,12.90
2019-04-12T09:57:44.724Z,12.90
2019-04-12T10:00:14.605Z,13.00
2019-04-12T10:02:44.132Z,13.00
2019-04-12T10:05:13.891Z,13.10
2019-04-12T10:07:43.392Z,13.30
2019-04-12T10:10:13.197Z,13.50
2019-04-12T10:12:43.036Z,13.30
2019-04-12T10:15:14.940Z,13.70
2019-04-12T10:17:44.496Z,13.70
2019-04-12T10:20:14.248Z,14.00
2019-04-12T10:22:43.691Z,14.20
2019-04-12T10:25:13.397Z,14.10
2019-04-12T10:27:44.804Z,14.30
2019-04-12T10:30:15.253Z,14.30
2019-04-12T10:32:44.953Z,14.50
2019-04-12T10:35:14.943Z,14.60
2019-04-12T10:37:44.459Z,14.50
2019-04-12T10:40:14.464Z,14.50
2019-04-12T10:42:44.192Z,14.50
2019-04-12T10:45:31.161Z,14.70
2019-04-12T10:48:03.800Z,14.60
2019-04-12T10:51:00.729Z,14.60
2019-04-12T10:53:46.985Z,14.70
2019-04-12T10:56:16.613Z,14.80
2019-04-12T10:58:46.900Z,14.80
2019-04-12T11:01:17.418Z,14.90
2019-04-12T11:03:47.352Z,15.00
2019-04-12T11:06:29.504Z,15.00
2019-04-12T11:08:48.318Z,15.10
2019-04-12T11:11:18.007Z,15.00
2019-04-12T11:13:47.469Z,15.00
2019-04-12T11:16:16.975Z,15.40
2019-04-12T11:18:48.226Z,15.40
2019-04-12T11:21:17.749Z,15.30
2019-04-12T11:23:47.192Z,15.50
2019-04-12T11:26:16.752Z,15.40
2019-04-12T11:28:46.260Z,15.40
2019-04-12T11:31:15.964Z,15.50
2019-04-12T11:33:45.833Z,15.80
2019-04-12T11:36:15.421Z,15.50
2019-04-12T11:38:44.885Z,15.40
2019-04-12T11:41:14.504Z,15.50
2019-04-12T11:43:44.085Z,16.00
2019-04-12T11:46:13.548Z,16.10
2019-04-12T11:48:43.087Z,16.00
2019-04-12T11:51:12.696Z,15.90
2019-04-12T11:53:42.207Z,15.40
2019-04-12T11:56:12.241Z,15.00
2019-04-12T11:58:48.475Z,15.50
2019-04-12T12:01:20.826Z,15.90
2019-04-12T12:03:58.506Z,16.00
2019-04-12T12:06:42.279Z,16.00
2019-04-12T12:09:19.458Z,15.90
2019-04-12T12:11:50.839Z,16.30
2019-04-12T12:14:28.116Z,16.20
2019-04-12T12:16:59.581Z,16.10
2019-04-12T12:19:29.083Z,16.40
2019-04-12T12:21:58.612Z,16.40
2019-04-12T12:24:28.075Z,16.10
2019-04-12T12:26:57.528Z,16.20
2019-04-12T12:29:27.320Z,16.00
2019-04-12T12:31:56.858Z,16.10
2019-04-12T12:34:26.371Z,16.30
2019-04-12T12:36:55.999Z,16.50
2019-04-12T12:39:25.869Z,16.80
2019-04-12T12:41:55.473Z,16.60
2019-04-12T12:44:25.076Z,16.50
2019-04-12T12:46:54.612Z,16.10
2019-04-12T12:49:24.418Z,16.20
2019-04-12T12:51:53.931Z,16.40
2019-04-12T12:54:23.645Z,16.30
2019-04-12T12:56:53.161Z,15.90
2019-04-12T12:59:22.666Z,15.90
2019-04-12T13:01:52.247Z,15.90
2019-04-12T13:04:21.754Z,15.80
2019-04-12T13:06:51.317Z,15.50
2019-04-12T13:09:20.819Z,15.80
2019-04-12T13:11:50.724Z,16.00
2019-04-12T13:14:20.238Z,16.10
2019-04-12T13:16:50.207Z,16.30
2019-04-12T13:19:19.976Z,16.30
2019-04-12T13:21:50.077Z,16.70
2019-04-12T13:24:19.653Z,16.70
2019-04-12T13:26:49.490Z,16.30
2019-04-12T13:29:19.072Z,16.50
2019-04-12T13:31:50.199Z,17.70
2019-04-12T13:34:39.813Z,18.50
2019-04-12T13:37:26.256Z,18.40
2019-04-12T13:40:00.267Z,17.90
2019-04-12T13:42:40.698Z,18.10
2019-04-12T13:45:11.419Z,17.80
2019-04-12T13:47:41.142Z,17.80
2019-04-12T13:50:10.995Z,18.20
2019-04-12T13:52:40.576Z,18.70
2019-04-12T13:55:10.851Z,19.10
2019-04-12T13:57:43.172Z,19.30
2019-04-12T14:00:19.227Z,19.20
2019-04-12T14:02:46.529Z,19.10
2019-04-12T14:05:16.169Z,18.50
2019-04-12T14:07:45.607Z,18.20
2019-04-12T14:10:15.302Z,18.40
2019-04-12T14:12:47.684Z,17.90
2019-04-12T14:15:17.331Z,17.60
2019-04-12T14:17:47.060Z,17.70
2019-04-12T14:20:16.643Z,18.10
2019-04-12T14:22:46.252Z,17.90
2019-04-12T14:25:16.366Z,17.30
2019-04-12T14:27:45.975Z,17.10
2019-04-12T14:30:32.889Z,17.50
2019-04-12T14:32:55.997Z,17.90
2019-04-12T14:35:30.116Z,17.00
2019-04-12T14:38:01.259Z,16.60
2019-04-12T14:40:42.233Z,16.30
2019-04-12T14:43:12.357Z,16.00
2019-04-12T14:45:49.281Z,15.90
2019-04-12T14:48:20.441Z,16.10
2019-04-12T14:50:50.022Z,16.20
2019-04-12T14:53:19.883Z,15.90
2019-04-12T14:55:49.749Z,15.70
2019-04-12T14:58:19.621Z,15.60
2019-04-12T15:00:53.548Z,15.60
2019-04-12T15:03:23.549Z,16.10
2019-04-12T15:05:53.126Z,16.00
2019-04-12T15:08:22.828Z,15.70
2019-04-12T15:11:11.839Z,15.60
2019-04-12T15:13:41.480Z,16.00
2019-04-12T15:16:12.864Z,15.80
2019-04-12T15:18:42.405Z,15.60
2019-04-12T15:21:12.255Z,15.60
2019-04-12T15:23:42.163Z,15.60
2019-04-12T15:26:12.169Z,15.40
2019-04-12T15:28:41.712Z,15.10
2019-04-12T15:31:11.601Z,15.00
2019-04-12T15:33:41.131Z,14.90
2019-04-12T15:36:11.023Z,15.10
2019-04-12T15:38:40.944Z,15.30
2019-04-12T15:41:10.615Z,15.10
2019-04-12T15:43:40.075Z,15.00
2019-04-12T15:46:09.508Z,14.80
2019-04-12T15:48:39.072Z,14.50
2019-04-12T15:51:08.675Z,14.30
2019-04-12T15:53:38.288Z,14.40
2019-04-12T15:56:08.098Z,14.40
2019-04-12T15:58:37.825Z,14.30
2019-04-12T16:01:12.619Z,14.30
2019-04-12T16:03:43.000Z,14.30
2019-04-12T16:06:12.880Z,14.00
2019-04-12T16:08:54.481Z,13.90
2019-04-12T16:11:27.074Z,14.10
2019-04-12T16:14:15.046Z,14.10
2019-04-12T16:17:13.112Z,13.60
2019-04-12T16:19:43.581Z,13.50
2019-04-12T16:22:13.166Z,13.20
2019-04-12T16:24:42.800Z,13.10
2019-04-12T16:27:12.464Z,13.00
2019-04-12T16:29:49.425Z,12.90
2019-04-12T16:32:21.945Z,12.70
2019-04-12T16:35:05.347Z,12.60
2019-04-12T16:37:52.069Z,12.60
2019-04-12T16:40:23.565Z,12.40
2019-04-12T16:42:53.646Z,12.40
2019-04-12T16:45:23.329Z,12.40
2019-04-12T16:47:52.799Z,12.40
2019-04-12T16:50:22.393Z,12.20
2019-04-12T16:52:52.051Z,12.30
2019-04-12T16:55:21.608Z,12.10
2019-04-12T16:57:51.114Z,11.90
2019-04-12T17:00:35.857Z,11.90
2019-04-12T17:03:06.775Z,11.80
2019-04-12T17:05:36.962Z,11.60
2019-04-12T17:08:06.840Z,11.50
2019-04-12T17:10:37.048Z,11.50
2019-04-12T17:13:08.352Z,11.40
2019-04-12T17:15:37.835Z,11.30
2019-04-12T17:18:07.414Z,11.10
2019-04-12T17:20:37.017Z,11.10
2019-04-12T17:23:06.841Z,11.00
2019-04-12T17:25:42.178Z,11.00
2019-04-12T17:28:12.043Z,10.90
2019-04-12T17:30:42.187Z,10.90
2019-04-12T17:33:11.836Z,10.90
2019-04-12T17:35:41.536Z,10.90
2019-04-12T17:38:11.185Z,10.80
2019-04-12T17:40:40.639Z,10.90
2019-04-12T17:43:10.280Z,10.80
2019-04-12T17:45:39.724Z,10.80
2019-04-12T17:48:10.875Z,10.70
2019-04-12T17:50:45.082Z,10.60
2019-04-12T17:53:19.504Z,10.60
2019-04-12T17:55:56.477Z,10.40
2019-04-12T17:58:26.060Z,10.50
2019-04-12T18:01:12.345Z,10.40
2019-04-12T18:03:43.464Z,10.40
2019-04-12T18:06:12.903Z,10.20
2019-04-12T18:08:42.440Z,10.20
2019-04-12T18:11:13.856Z,10.10
2019-04-12T18:13:43.298Z,10.10
2019-04-12T18:16:14.813Z,10.10
2019-04-12T18:18:44.346Z,10.00
2019-04-12T18:21:14.116Z,10.00
2019-04-12T18:23:43.925Z,10.00
2019-04-12T18:26:13.363Z,10.00
2019-04-12T18:28:42.944Z,9.90
2019-04-12T18:31:12.482Z,9.90
2019-04-12T18:33:41.916Z,9.90
2019-04-12T18:36:11.442Z,9.80
2019-04-12T18:38:41.405Z,9.80
2019-04-12T18:41:11.104Z,9.80
2019-04-12T18:43:40.934Z,9.80
2019-04-12T18:46:10.660Z,9.70
2019-04-12T18:48:40.096Z,9.60
2019-04-12T18:51:09.623Z,9.70
2019-04-12T18:53:39.349Z,9.60
2019-04-12T18:56:08.958Z,9.60
2019-04-12T18:58:38.765Z,9.60
2019-04-12T19:01:08.683Z,9.50
2019-04-12T19:03:41.572Z,9.40
2019-04-12T19:06:14.711Z,9.30
2019-04-12T19:08:42.377Z,9.30
2019-04-12T19:11:11.940Z,9.30
2019-04-12T19:13:41.563Z,9.30
2019-04-12T19:16:11.398Z,9.30
2019-04-12T19:18:41.168Z,9.20
2019-04-12T19:21:10.699Z,9.10
2019-04-12T19:23:40.152Z,9.10
2019-04-12T19:26:09.797Z,9.10
2019-04-12T19:28:39.497Z,9.10
2019-04-12T19:31:10.927Z,9.10
2019-04-12T19:33:45.078Z,9.10
2019-04-12T19:36:32.705Z,9.00
2019-04-12T19:39:19.151Z,9.10
2019-04-12T19:41:49.444Z,8.90
2019-04-12T19:44:19.038Z,8.80
2019-04-12T19:46:48.557Z,8.80
2019-04-12T19:49:18.500Z,8.80
2019-04-12T19:51:48.080Z,8.80
2019-04-12T19:54:17.664Z,8.80
2019-04-12T19:56:47.296Z,8.70
2019-04-12T19:59:16.884Z,8.70
2019-04-12T20:01:46.851Z,8.70
2019-04-12T20:04:16.392Z,8.60
2019-04-12T20:06:45.891Z,8.60
2019-04-12T20:09:15.509Z,8.50
2019-04-12T20:11:45.254Z,8.50
2019-04-12T20:14:14.790Z,8.60
2019-04-12T20:16:46.650Z,8.60
2019-04-12T20:19:15.718Z,8.50
2019-04-12T20:21:45.225Z,8.50
2019-04-12T20:24:16.432Z,8.50
2019-04-12T20:26:46.066Z,8.40
2019-04-12T20:29:15.537Z,8.40
2019-04-12T20:31:45.620Z,8.40
2019-04-12T20:34:15.285Z,8.40
2019-04-12T20:36:44.763Z,8.30
2019-04-12T20:39:14.207Z,8.30
2019-04-12T20:41:43.765Z,8.30
2019-04-12T20:44:13.272Z,8.30
2019-04-12T20:46:42.878Z,8.30
2019-04-12T20:49:13.011Z,8.20
2019-04-12T20:51:42.625Z,8.10
2019-04-12T20:54:13.333Z,8.00
2019-04-12T20:56:42.877Z,8.00
2019-04-12T20:59:12.936Z,8.00
2019-04-12T21:01:42.514Z,8.00
2019-04-12T21:04:12.114Z,8.00
2019-04-12T21:06:41.688Z,8.00
2019-04-12T21:09:11.287Z,7.80
2019-04-12T21:11:40.847Z,7.70
2019-04-12T21:14:10.742Z,7.60
2019-04-12T21:16:40.341Z,7.60
2019-04-12T21:19:09.904Z,7.60
2019-04-12T21:21:39.394Z,7.60
2019-04-12T21:24:08.944Z,7.60
2019-04-12T21:26:39.628Z,7.70
2019-04-12T21:29:09.728Z,7.70
2019-04-12T21:31:39.228Z,7.70
2019-04-12T21:34:08.884Z,7.60
2019-04-12T21:36:38.881Z,7.60
2019-04-12T21:39:09.323Z,7.60
2019-04-12T21:41:39.228Z,7.60
2019-04-12T21:44:11.452Z,7.60
2019-04-12T21:46:40.060Z,7.50
2019-04-12T21:49:09.992Z,7.50
2019-04-12T21:51:39.451Z,7.50
2019-04-12T21:54:08.883Z,7.60
2019-04-12T21:56:38.577Z,7.60
2019-04-12T21:59:08.076Z,7.60
2019-04-12T22:01:38.455Z,7.60
2019-04-12T22:04:08.469Z,7.50
2019-04-12T22:06:38.403Z,7.50
2019-04-12T22:09:08.279Z,7.50
2019-04-12T22:11:38.356Z,7.50
2019-04-12T22:14:14.487Z,7.50
2019-04-12T22:16:39.096Z,7.50
2019-04-12T22:19:08.732Z,7.40
2019-04-12T22:21:38.227Z,7.40
2019-04-12T22:24:07.946Z,7.40
2019-04-12T22:26:37.944Z,7.30
2019-04-12T22:29:07.544Z,7.40
2019-04-12T22:31:38.702Z,7.40
2019-04-12T22:34:08.946Z,7.40
2019-04-12T22:36:39.800Z,7.30
2019-04-12T22:39:09.929Z,7.20
2019-04-12T22:41:40.021Z,7.20
2019-04-12T22:44:10.086Z,7.20
2019-04-12T22:46:39.649Z,7.20
2019-04-12T22:49:12.306Z,7.20
2019-04-12T22:51:41.847Z,7.20
2019-04-12T22:54:11.388Z,7.30
2019-04-12T22:56:41.116Z,7.30
2019-04-12T22:59:10.915Z,7.30
2019-04-12T23:01:40.668Z,7.30
2019-04-12T23:04:10.243Z,7.20
2019-04-12T23:06:39.934Z,7.20
2019-04-12T23:09:10.068Z,7.20
2019-04-12T23:11:39.615Z,7.20
2019-04-12T23:14:09.186Z,7.30
2019-04-12T23:16:38.752Z,7.30
2019-04-12T23:19:08.481Z,7.30
2019-04-12T23:21:37.975Z,7.30
2019-04-12T23:24:07.697Z,7.30
2019-04-12T23:26:37.284Z,7.30
2019-04-12T23:29:06.773Z,7.30
2019-04-12T23:31:40.764Z,7.20
2019-04-12T23:34:18.146Z,7.30
2019-04-12T23:36:48.164Z,7.20
2019-04-12T23:39:17.707Z,7.10
2019-04-12T23:41:47.417Z,7.10
2019-04-12T23:44:16.951Z,7.10
2019-04-12T23:46:46.443Z,7.00
2019-04-12T23:49:16.056Z,7.00
2019-04-12T23:51:45.727Z,7.10
2019-04-12T23:54:15.411Z,7.10
2019-04-12T23:56:45.185Z,7.10
2019-04-12T23:59:14.720Z,7.10
